KSAV/SAV METAR and TAF weather

Enter ICAO airport designator
Station Type Date Time Source
KSAV METAR 2020/01/17 13:53 UTC NOAA

KSAV 171353Z 04010KT 10SM FEW050 FEW250 12/M02 A3054 RMK AO2 SLP342 T01171022


Station Type Date Time Source
KSAV Decoded METAR 2020/01/17 13:53 UTC NOAA

SAVANNAH INTERNATIONAL AIRPORT , GA, United States (KSAV) 32-07N 81-12W 14M
Jan 17, 2020 - 08:53 AM EST / 2020.01.17 1353 UTC
Wind: from the NE (040 degrees) at 12 MPH (10 KT):0
Visibility: 10 mile(s):0
Sky conditions: mostly clear
Temperature: 53.1 F (11.7 C)
Dew Point: 28.0 F (-2.2 C)
Relative Humidity: 37%
Pressure (altimeter): 30.54 in. Hg (1034 hPa)
ob: KSAV 171353Z 04010KT 10SM FEW050 FEW250 12/M02 A3054 RMK AO2 SLP342 T01171022
cycle: 14

Station Type Date Time Source
KSAV TAF 2020/01/17 12:40 UTC NOAA

TAF KSAV 171136Z 1712/1812 03008KT P6SM SCT250
FM171400 04011G18KT P6SM FEW250
FM180000 07006KT P6SM SCT150
FM180800 04007KT P6SM BKN030

Example: see airport list